sensor_id;sensor_type;location;lat;lon;timestamp;P1;durP1;ratioP1;P2;durP2;ratioP2
22652;SDS011;11493;43.344;26.226;2023-04-25T00:01:06;8.77;;;4.82;;
22652;SDS011;11493;43.344;26.226;2023-04-25T00:03:35;12.40;;;7.72;;
22652;SDS011;11493;43.344;26.226;2023-04-25T00:06:02;9.25;;;6.50;;
22652;SDS011;11493;43.344;26.226;2023-04-25T00:08:29;9.75;;;6.35;;
22652;SDS011;11493;43.344;26.226;2023-04-25T00:10:57;7.70;;;6.22;;
22652;SDS011;11493;43.344;26.226;2023-04-25T00:13:25;8.70;;;6.03;;
22652;SDS011;11493;43.344;26.226;2023-04-25T00:15:52;6.03;;;5.00;;
22652;SDS011;11493;43.344;26.226;2023-04-25T00:18:19;13.77;;;5.45;;
22652;SDS011;11493;43.344;26.226;2023-04-25T00:20:46;8.38;;;6.07;;
22652;SDS011;11493;43.344;26.226;2023-04-25T00:23:14;7.10;;;6.38;;
22652;SDS011;11493;43.344;26.226;2023-04-25T00:25:45;11.93;;;7.65;;
22652;SDS011;11493;43.344;26.226;2023-04-25T00:28:13;8.43;;;6.90;;
22652;SDS011;11493;43.344;26.226;2023-04-25T00:30:40;12.15;;;7.15;;
22652;SDS011;11493;43.344;26.226;2023-04-25T00:33:08;7.15;;;6.55;;
22652;SDS011;11493;43.344;26.226;2023-04-25T00:35:36;7.72;;;6.93;;
22652;SDS011;11493;43.344;26.226;2023-04-25T00:38:04;9.85;;;6.88;;
22652;SDS011;11493;43.344;26.226;2023-04-25T00:40:31;12.40;;;6.68;;
22652;SDS011;11493;43.344;26.226;2023-04-25T00:42:59;12.88;;;5.43;;
22652;SDS011;11493;43.344;26.226;2023-04-25T00:45:29;9.80;;;5.32;;
22652;SDS011;11493;43.344;26.226;2023-04-25T00:47:56;10.68;;;5.82;;
22652;SDS011;11493;43.344;26.226;2023-04-25T00:50:23;8.10;;;5.63;;
22652;SDS011;11493;43.344;26.226;2023-04-25T00:52:51;5.38;;;4.60;;
22652;SDS011;11493;43.344;26.226;2023-04-25T00:55:18;8.27;;;5.25;;
22652;SDS011;11493;43.344;26.226;2023-04-25T00:57:46;9.73;;;5.30;;
22652;SDS011;11493;43.344;26.226;2023-04-25T01:00:13;7.75;;;5.40;;
22652;SDS011;11493;43.344;26.226;2023-04-25T01:02:42;5.80;;;5.30;;
22652;SDS011;11493;43.344;26.226;2023-04-25T01:05:11;8.82;;;6.65;;
22652;SDS011;11493;43.344;26.226;2023-04-25T01:07:38;10.60;;;6.20;;
22652;SDS011;11493;43.344;26.226;2023-04-25T01:10:06;7.47;;;6.50;;
22652;SDS011;11493;43.344;26.226;2023-04-25T01:12:33;14.18;;;6.10;;
22652;SDS011;11493;43.344;26.226;2023-04-25T01:15:00;10.68;;;6.05;;
22652;SDS011;11493;43.344;26.226;2023-04-25T01:17:28;7.07;;;5.60;;
22652;SDS011;11493;43.344;26.226;2023-04-25T01:19:55;13.40;;;5.25;;
22652;SDS011;11493;43.344;26.226;2023-04-25T01:22:23;6.47;;;5.82;;
22652;SDS011;11493;43.344;26.226;2023-04-25T01:24:50;7.82;;;6.32;;
22652;SDS011;11493;43.344;26.226;2023-04-25T01:27:17;6.72;;;6.07;;
22652;SDS011;11493;43.344;26.226;2023-04-25T01:29:45;9.10;;;4.90;;
22652;SDS011;11493;43.344;26.226;2023-04-25T01:32:12;7.75;;;5.10;;
22652;SDS011;11493;43.344;26.226;2023-04-25T01:34:40;4.68;;;4.28;;
22652;SDS011;11493;43.344;26.226;2023-04-25T01:37:07;8.15;;;4.32;;
22652;SDS011;11493;43.344;26.226;2023-04-25T01:39:34;11.07;;;5.07;;
22652;SDS011;11493;43.344;26.226;2023-04-25T01:42:01;9.18;;;5.03;;
22652;SDS011;11493;43.344;26.226;2023-04-25T01:44:29;7.07;;;4.63;;
22652;SDS011;11493;43.344;26.226;2023-04-25T01:46:56;6.25;;;4.32;;
22652;SDS011;11493;43.344;26.226;2023-04-25T01:49:24;7.70;;;4.85;;
22652;SDS011;11493;43.344;26.226;2023-04-25T01:51:52;8.48;;;4.72;;
22652;SDS011;11493;43.344;26.226;2023-04-25T01:54:20;9.55;;;4.93;;
22652;SDS011;11493;43.344;26.226;2023-04-25T01:56:50;7.28;;;4.70;;
22652;SDS011;11493;43.344;26.226;2023-04-25T01:59:19;6.88;;;4.80;;
22652;SDS011;11493;43.344;26.226;2023-04-25T02:01:58;10.32;;;5.28;;
22652;SDS011;11493;43.344;26.226;2023-04-25T02:04:30;10.55;;;4.65;;
22652;SDS011;11493;43.344;26.226;2023-04-25T02:06:57;5.57;;;4.72;;
22652;SDS011;11493;43.344;26.226;2023-04-25T02:09:33;11.32;;;4.47;;
22652;SDS011;11493;43.344;26.226;2023-04-25T02:12:04;6.97;;;5.00;;
22652;SDS011;11493;43.344;26.226;2023-04-25T02:14:51;5.40;;;4.90;;
22652;SDS011;11493;43.344;26.226;2023-04-25T02:17:33;8.27;;;5.32;;
22652;SDS011;11493;43.344;26.226;2023-04-25T02:19:59;14.20;;;5.68;;
22652;SDS011;11493;43.344;26.226;2023-04-25T02:22:26;12.88;;;6.65;;
22652;SDS011;11493;43.344;26.226;2023-04-25T02:24:56;8.15;;;7.45;;
22652;SDS011;11493;43.344;26.226;2023-04-25T02:27:23;11.95;;;8.77;;
22652;SDS011;11493;43.344;26.226;2023-04-25T02:29:50;15.57;;;10.63;;
22652;SDS011;11493;43.344;26.226;2023-04-25T02:32:17;16.02;;;10.80;;
22652;SDS011;11493;43.344;26.226;2023-04-25T02:34:46;16.55;;;10.45;;
22652;SDS011;11493;43.344;26.226;2023-04-25T02:37:12;15.25;;;10.25;;
22652;SDS011;11493;43.344;26.226;2023-04-25T02:39:39;13.57;;;7.78;;
22652;SDS011;11493;43.344;26.226;2023-04-25T02:42:06;20.77;;;10.27;;
22652;SDS011;11493;43.344;26.226;2023-04-25T02:44:33;12.93;;;9.82;;
22652;SDS011;11493;43.344;26.226;2023-04-25T02:47:00;13.15;;;8.98;;
22652;SDS011;11493;43.344;26.226;2023-04-25T02:49:27;16.20;;;9.52;;
22652;SDS011;11493;43.344;26.226;2023-04-25T02:51:54;13.05;;;8.70;;
22652;SDS011;11493;43.344;26.226;2023-04-25T02:54:21;13.95;;;7.13;;
22652;SDS011;11493;43.344;26.226;2023-04-25T02:56:48;11.55;;;6.78;;
22652;SDS011;11493;43.344;26.226;2023-04-25T02:59:21;9.00;;;6.55;;
22652;SDS011;11493;43.344;26.226;2023-04-25T03:01:48;10.13;;;6.65;;
22652;SDS011;11493;43.344;26.226;2023-04-25T03:04:16;9.85;;;6.70;;
22652;SDS011;11493;43.344;26.226;2023-04-25T03:06:43;10.43;;;6.70;;
22652;SDS011;11493;43.344;26.226;2023-04-25T03:09:10;10.70;;;7.22;;
22652;SDS011;11493;43.344;26.226;2023-04-25T03:11:40;10.63;;;8.45;;
22652;SDS011;11493;43.344;26.226;2023-04-25T03:14:07;11.20;;;7.82;;
22652;SDS011;11493;43.344;26.226;2023-04-25T03:16:34;16.77;;;7.47;;
22652;SDS011;11493;43.344;26.226;2023-04-25T03:19:02;9.10;;;6.22;;
22652;SDS011;11493;43.344;26.226;2023-04-25T03:21:30;12.70;;;6.03;;
22652;SDS011;11493;43.344;26.226;2023-04-25T03:24:01;6.15;;;5.53;;
22652;SDS011;11493;43.344;26.226;2023-04-25T03:26:30;7.78;;;5.75;;
22652;SDS011;11493;43.344;26.226;2023-04-25T03:28:58;9.98;;;5.53;;
22652;SDS011;11493;43.344;26.226;2023-04-25T03:31:27;9.27;;;5.50;;
22652;SDS011;11493;43.344;26.226;2023-04-25T03:33:55;8.57;;;5.95;;
22652;SDS011;11493;43.344;26.226;2023-04-25T03:36:23;11.57;;;7.53;;
22652;SDS011;11493;43.344;26.226;2023-04-25T03:38:50;8.95;;;6.85;;
22652;SDS011;11493;43.344;26.226;2023-04-25T03:41:19;16.25;;;10.93;;
22652;SDS011;11493;43.344;26.226;2023-04-25T03:46:27;27.20;;;14.75;;
22652;SDS011;11493;43.344;26.226;2023-04-25T03:48:54;18.27;;;10.82;;
22652;SDS011;11493;43.344;26.226;2023-04-25T03:51:29;15.25;;;10.20;;
22652;SDS011;11493;43.344;26.226;2023-04-25T03:53:57;15.98;;;9.80;;
22652;SDS011;11493;43.344;26.226;2023-04-25T03:56:54;10.73;;;8.32;;
22652;SDS011;11493;43.344;26.226;2023-04-25T03:59:24;13.60;;;8.52;;
22652;SDS011;11493;43.344;26.226;2023-04-25T04:01:53;9.07;;;7.22;;
22652;SDS011;11493;43.344;26.226;2023-04-25T04:04:21;13.80;;;8.07;;
22652;SDS011;11493;43.344;26.226;2023-04-25T04:06:48;20.05;;;12.55;;
22652;SDS011;11493;43.344;26.226;2023-04-25T04:09:20;10.40;;;8.70;;
22652;SDS011;11493;43.344;26.226;2023-04-25T04:11:47;14.15;;;8.68;;
22652;SDS011;11493;43.344;26.226;2023-04-25T04:14:15;14.25;;;7.10;;
22652;SDS011;11493;43.344;26.226;2023-04-25T04:16:44;12.00;;;6.97;;
22652;SDS011;11493;43.344;26.226;2023-04-25T04:19:11;12.38;;;6.72;;
22652;SDS011;11493;43.344;26.226;2023-04-25T04:21:43;13.00;;;10.68;;
22652;SDS011;11493;43.344;26.226;2023-04-25T04:24:10;20.90;;;17.17;;
22652;SDS011;11493;43.344;26.226;2023-04-25T04:26:50;63.58;;;45.05;;
22652;SDS011;11493;43.344;26.226;2023-04-25T04:29:34;52.78;;;35.47;;
22652;SDS011;11493;43.344;26.226;2023-04-25T04:32:23;41.47;;;31.75;;
22652;SDS011;11493;43.344;26.226;2023-04-25T04:34:50;26.38;;;18.98;;
22652;SDS011;11493;43.344;26.226;2023-04-25T04:37:20;41.25;;;25.88;;
22652;SDS011;11493;43.344;26.226;2023-04-25T04:39:48;43.72;;;28.95;;
22652;SDS011;11493;43.344;26.226;2023-04-25T04:42:44;22.52;;;18.02;;
22652;SDS011;11493;43.344;26.226;2023-04-25T04:45:41;23.85;;;16.77;;
22652;SDS011;11493;43.344;26.226;2023-04-25T04:48:28;26.60;;;13.48;;
22652;SDS011;11493;43.344;26.226;2023-04-25T04:51:03;25.23;;;13.73;;
22652;SDS011;11493;43.344;26.226;2023-04-25T04:53:50;26.98;;;8.68;;
22652;SDS011;11493;43.344;26.226;2023-04-25T04:56:28;17.85;;;6.88;;
22652;SDS011;11493;43.344;26.226;2023-04-25T04:59:25;11.18;;;6.53;;
22652;SDS011;11493;43.344;26.226;2023-04-25T05:02:24;8.40;;;6.28;;
22652;SDS011;11493;43.344;26.226;2023-04-25T05:05:10;8.02;;;6.25;;
22652;SDS011;11493;43.344;26.226;2023-04-25T05:08:03;13.57;;;6.50;;
22652;SDS011;11493;43.344;26.226;2023-04-25T05:10:50;8.25;;;5.43;;
22652;SDS011;11493;43.344;26.226;2023-04-25T05:13:37;19.48;;;7.28;;
22652;SDS011;11493;43.344;26.226;2023-04-25T05:16:22;9.60;;;6.60;;
22652;SDS011;11493;43.344;26.226;2023-04-25T05:19:12;15.90;;;7.93;;
22652;SDS011;11493;43.344;26.226;2023-04-25T05:21:46;13.63;;;8.38;;
22652;SDS011;11493;43.344;26.226;2023-04-25T05:24:42;19.17;;;9.10;;
22652;SDS011;11493;43.344;26.226;2023-04-25T05:27:28;19.60;;;10.15;;
22652;SDS011;11493;43.344;26.226;2023-04-25T05:30:00;47.40;;;19.02;;
22652;SDS011;11493;43.344;26.226;2023-04-25T05:32:34;57.17;;;21.27;;
22652;SDS011;11493;43.344;26.226;2023-04-25T05:35:01;61.78;;;21.05;;
22652;SDS011;11493;43.344;26.226;2023-04-25T05:37:35;57.30;;;22.05;;
22652;SDS011;11493;43.344;26.226;2023-04-25T05:40:09;32.10;;;14.25;;
22652;SDS011;11493;43.344;26.226;2023-04-25T05:42:43;34.85;;;14.73;;
22652;SDS011;11493;43.344;26.226;2023-04-25T05:45:19;47.05;;;19.63;;
22652;SDS011;11493;43.344;26.226;2023-04-25T05:48:06;58.17;;;23.50;;
22652;SDS011;11493;43.344;26.226;2023-04-25T05:50:48;46.03;;;23.45;;
22652;SDS011;11493;43.344;26.226;2023-04-25T05:53:24;44.90;;;20.30;;
22652;SDS011;11493;43.344;26.226;2023-04-25T05:55:57;48.17;;;19.15;;
22652;SDS011;11493;43.344;26.226;2023-04-25T05:58:26;32.50;;;17.70;;
22652;SDS011;11493;43.344;26.226;2023-04-25T06:00:54;45.95;;;20.23;;
22652;SDS011;11493;43.344;26.226;2023-04-25T06:03:22;38.70;;;20.55;;
22652;SDS011;11493;43.344;26.226;2023-04-25T06:05:50;37.22;;;18.65;;
22652;SDS011;11493;43.344;26.226;2023-04-25T06:08:18;34.42;;;17.50;;
22652;SDS011;11493;43.344;26.226;2023-04-25T06:10:45;44.75;;;17.85;;
22652;SDS011;11493;43.344;26.226;2023-04-25T06:13:13;44.38;;;19.90;;
22652;SDS011;11493;43.344;26.226;2023-04-25T06:15:40;36.08;;;18.88;;
22652;SDS011;11493;43.344;26.226;2023-04-25T06:18:07;22.67;;;11.93;;
22652;SDS011;11493;43.344;26.226;2023-04-25T06:20:34;20.67;;;12.73;;
22652;SDS011;11493;43.344;26.226;2023-04-25T06:23:01;23.60;;;15.50;;
22652;SDS011;11493;43.344;26.226;2023-04-25T06:25:40;34.13;;;18.90;;
22652;SDS011;11493;43.344;26.226;2023-04-25T06:28:07;22.52;;;16.27;;
22652;SDS011;11493;43.344;26.226;2023-04-25T06:30:35;27.83;;;17.77;;
22652;SDS011;11493;43.344;26.226;2023-04-25T06:33:06;32.80;;;19.75;;
22652;SDS011;11493;43.344;26.226;2023-04-25T06:35:36;28.85;;;20.60;;
22652;SDS011;11493;43.344;26.226;2023-04-25T06:38:05;27.88;;;17.67;;
22652;SDS011;11493;43.344;26.226;2023-04-25T06:40:32;21.83;;;17.50;;
22652;SDS011;11493;43.344;26.226;2023-04-25T06:43:00;24.90;;;16.02;;
22652;SDS011;11493;43.344;26.226;2023-04-25T06:45:49;27.13;;;17.15;;
22652;SDS011;11493;43.344;26.226;2023-04-25T06:48:16;22.55;;;14.57;;
22652;SDS011;11493;43.344;26.226;2023-04-25T06:50:43;26.85;;;16.50;;
22652;SDS011;11493;43.344;26.226;2023-04-25T06:53:11;22.90;;;15.90;;
22652;SDS011;11493;43.344;26.226;2023-04-25T06:55:40;27.48;;;16.48;;
22652;SDS011;11493;43.344;26.226;2023-04-25T06:58:12;31.23;;;16.23;;
22652;SDS011;11493;43.344;26.226;2023-04-25T07:00:58;28.90;;;16.20;;
22652;SDS011;11493;43.344;26.226;2023-04-25T07:03:25;27.88;;;16.13;;
22652;SDS011;11493;43.344;26.226;2023-04-25T07:05:57;22.48;;;15.57;;
22652;SDS011;11493;43.344;26.226;2023-04-25T07:08:24;23.25;;;15.88;;
22652;SDS011;11493;43.344;26.226;2023-04-25T07:10:51;24.75;;;14.10;;
22652;SDS011;11493;43.344;26.226;2023-04-25T07:13:18;25.13;;;14.15;;
22652;SDS011;11493;43.344;26.226;2023-04-25T07:15:46;19.27;;;12.52;;
22652;SDS011;11493;43.344;26.226;2023-04-25T07:18:16;23.77;;;12.40;;
22652;SDS011;11493;43.344;26.226;2023-04-25T07:20:43;11.48;;;9.10;;
22652;SDS011;11493;43.344;26.226;2023-04-25T07:23:11;13.25;;;8.20;;
22652;SDS011;11493;43.344;26.226;2023-04-25T07:25:38;11.45;;;7.78;;
22652;SDS011;11493;43.344;26.226;2023-04-25T07:28:06;12.85;;;8.75;;
22652;SDS011;11493;43.344;26.226;2023-04-25T07:30:33;11.30;;;7.35;;
22652;SDS011;11493;43.344;26.226;2023-04-25T07:33:04;12.35;;;8.82;;
22652;SDS011;11493;43.344;26.226;2023-04-25T07:35:32;13.18;;;10.85;;
22652;SDS011;11493;43.344;26.226;2023-04-25T07:37:59;31.40;;;10.48;;
22652;SDS011;11493;43.344;26.226;2023-04-25T07:40:27;14.30;;;9.10;;
22652;SDS011;11493;43.344;26.226;2023-04-25T07:43:00;17.52;;;11.60;;
22652;SDS011;11493;43.344;26.226;2023-04-25T07:45:40;12.75;;;8.82;;
22652;SDS011;11493;43.344;26.226;2023-04-25T07:48:07;10.90;;;6.43;;
22652;SDS011;11493;43.344;26.226;2023-04-25T07:50:36;10.63;;;6.78;;
22652;SDS011;11493;43.344;26.226;2023-04-25T07:53:04;7.00;;;6.13;;
22652;SDS011;11493;43.344;26.226;2023-04-25T07:55:35;10.02;;;5.28;;
22652;SDS011;11493;43.344;26.226;2023-04-25T07:58:24;4.75;;;2.60;;
22652;SDS011;11493;43.344;26.226;2023-04-25T08:00:57;5.82;;;2.60;;
22652;SDS011;11493;43.344;26.226;2023-04-25T08:03:45;2.45;;;2.25;;
22652;SDS011;11493;43.344;26.226;2023-04-25T08:06:31;5.35;;;2.10;;
22652;SDS011;11493;43.344;26.226;2023-04-25T08:09:21;8.43;;;2.08;;
22652;SDS011;11493;43.344;26.226;2023-04-25T08:11:48;2.95;;;2.13;;
22652;SDS011;11493;43.344;26.226;2023-04-25T08:14:20;51.13;;;33.70;;
22652;SDS011;11493;43.344;26.226;2023-04-25T08:16:47;7.25;;;6.57;;
22652;SDS011;11493;43.344;26.226;2023-04-25T08:19:15;2.28;;;1.58;;
22652;SDS011;11493;43.344;26.226;2023-04-25T08:21:42;4.22;;;2.05;;
22652;SDS011;11493;43.344;26.226;2023-04-25T08:24:14;1.75;;;1.33;;
22652;SDS011;11493;43.344;26.226;2023-04-25T08:26:42;4.32;;;1.90;;
22652;SDS011;11493;43.344;26.226;2023-04-25T08:29:13;6.18;;;1.30;;
22652;SDS011;11493;43.344;26.226;2023-04-25T08:31:41;2.83;;;1.17;;
22652;SDS011;11493;43.344;26.226;2023-04-25T08:34:09;2.70;;;1.10;;
22652;SDS011;11493;43.344;26.226;2023-04-25T08:37:02;1.08;;;0.98;;
22652;SDS011;11493;43.344;26.226;2023-04-25T08:39:47;1.52;;;1.10;;
22652;SDS011;11493;43.344;26.226;2023-04-25T08:42:33;1.70;;;1.10;;
22652;SDS011;11493;43.344;26.226;2023-04-25T08:45:03;3.80;;;1.30;;
22652;SDS011;11493;43.344;26.226;2023-04-25T08:47:37;1.38;;;1.27;;
22652;SDS011;11493;43.344;26.226;2023-04-25T08:50:05;3.50;;;1.65;;
22652;SDS011;11493;43.344;26.226;2023-04-25T08:52:39;2.20;;;1.40;;
22652;SDS011;11493;43.344;26.226;2023-04-25T08:55:12;2.72;;;1.15;;
22652;SDS011;11493;43.344;26.226;2023-04-25T08:57:41;2.28;;;1.15;;
22652;SDS011;11493;43.344;26.226;2023-04-25T09:00:12;0.80;;;0.80;;
22652;SDS011;11493;43.344;26.226;2023-04-25T09:02:42;2.65;;;1.40;;
22652;SDS011;11493;43.344;26.226;2023-04-25T09:05:12;1.65;;;1.23;;
22652;SDS011;11493;43.344;26.226;2023-04-25T09:07:41;2.05;;;1.13;;
22652;SDS011;11493;43.344;26.226;2023-04-25T09:10:08;1.65;;;1.13;;
22652;SDS011;11493;43.344;26.226;2023-04-25T09:12:37;1.52;;;0.70;;
22652;SDS011;11493;43.344;26.226;2023-04-25T09:15:07;1.15;;;0.80;;
22652;SDS011;11493;43.344;26.226;2023-04-25T09:17:55;2.33;;;1.33;;
22652;SDS011;11493;43.344;26.226;2023-04-25T09:20:26;3.72;;;1.13;;
22652;SDS011;11493;43.344;26.226;2023-04-25T09:23:03;1.05;;;0.60;;
22652;SDS011;11493;43.344;26.226;2023-04-25T09:25:36;0.90;;;0.60;;
22652;SDS011;11493;43.344;26.226;2023-04-25T09:28:08;2.92;;;0.75;;
22652;SDS011;11493;43.344;26.226;2023-04-25T09:30:36;2.63;;;0.70;;
22652;SDS011;11493;43.344;26.226;2023-04-25T09:33:10;0.80;;;0.70;;
22652;SDS011;11493;43.344;26.226;2023-04-25T09:35:41;2.17;;;0.90;;
22652;SDS011;11493;43.344;26.226;2023-04-25T09:38:16;1.30;;;0.80;;
22652;SDS011;11493;43.344;26.226;2023-04-25T09:41:03;2.80;;;0.73;;
22652;SDS011;11493;43.344;26.226;2023-04-25T09:43:38;5.22;;;0.77;;
22652;SDS011;11493;43.344;26.226;2023-04-25T09:46:08;0.57;;;0.43;;
22652;SDS011;11493;43.344;26.226;2023-04-25T09:48:51;0.73;;;0.50;;
22652;SDS011;11493;43.344;26.226;2023-04-25T09:51:28;0.40;;;0.40;;
22652;SDS011;11493;43.344;26.226;2023-04-25T09:53:57;1.15;;;0.50;;
22652;SDS011;11493;43.344;26.226;2023-04-25T09:56:35;0.85;;;0.40;;
22652;SDS011;11493;43.344;26.226;2023-04-25T09:59:06;2.53;;;0.40;;
22652;SDS011;11493;43.344;26.226;2023-04-25T10:01:36;5.07;;;0.40;;
22652;SDS011;11493;43.344;26.226;2023-04-25T10:04:13;0.55;;;0.47;;
22652;SDS011;11493;43.344;26.226;2023-04-25T10:06:55;1.00;;;0.60;;
22652;SDS011;11493;43.344;26.226;2023-04-25T10:09:24;1.48;;;0.60;;
22652;SDS011;11493;43.344;26.226;2023-04-25T10:11:52;0.60;;;0.50;;
22652;SDS011;11493;43.344;26.226;2023-04-25T10:14:21;1.17;;;0.50;;
22652;SDS011;11493;43.344;26.226;2023-04-25T10:16:48;2.50;;;0.60;;
22652;SDS011;11493;43.344;26.226;2023-04-25T10:19:16;0.50;;;0.45;;
22652;SDS011;11493;43.344;26.226;2023-04-25T10:21:48;1.30;;;0.50;;
22652;SDS011;11493;43.344;26.226;2023-04-25T10:24:19;0.45;;;0.40;;
22652;SDS011;11493;43.344;26.226;2023-04-25T10:26:47;2.55;;;0.50;;
22652;SDS011;11493;43.344;26.226;2023-04-25T10:29:21;0.40;;;0.40;;
22652;SDS011;11493;43.344;26.226;2023-04-25T10:31:50;0.90;;;0.50;;
22652;SDS011;11493;43.344;26.226;2023-04-25T10:34:18;2.30;;;0.60;;
22652;SDS011;11493;43.344;26.226;2023-04-25T10:36:50;1.27;;;0.47;;
22652;SDS011;11493;43.344;26.226;2023-04-25T10:39:24;0.80;;;0.70;;
22652;SDS011;11493;43.344;26.226;2023-04-25T10:44:31;0.70;;;0.52;;
22652;SDS011;11493;43.344;26.226;2023-04-25T10:46:58;0.70;;;0.60;;
22652;SDS011;11493;43.344;26.226;2023-04-25T10:52:16;9.27;;;0.60;;
22652;SDS011;11493;43.344;26.226;2023-04-25T10:54:53;0.40;;;0.40;;
22652;SDS011;11493;43.344;26.226;2023-04-25T10:57:29;0.45;;;0.43;;
22652;SDS011;11493;43.344;26.226;2023-04-25T11:00:17;3.88;;;0.73;;
22652;SDS011;11493;43.344;26.226;2023-04-25T11:02:46;0.70;;;0.40;;
22652;SDS011;11493;43.344;26.226;2023-04-25T11:05:20;0.40;;;0.40;;
22652;SDS011;11493;43.344;26.226;2023-04-25T11:08:04;2.10;;;1.33;;
22652;SDS011;11493;43.344;26.226;2023-04-25T11:10:40;1.17;;;1.00;;
22652;SDS011;11493;43.344;26.226;2023-04-25T11:13:07;2.20;;;0.90;;
22652;SDS011;11493;43.344;26.226;2023-04-25T11:15:34;2.22;;;0.90;;
22652;SDS011;11493;43.344;26.226;2023-04-25T11:18:01;1.42;;;0.80;;
22652;SDS011;11493;43.344;26.226;2023-04-25T11:20:29;0.95;;;0.77;;
22652;SDS011;11493;43.344;26.226;2023-04-25T11:22:59;3.58;;;0.85;;
22652;SDS011;11493;43.344;26.226;2023-04-25T11:25:26;2.60;;;1.15;;
22652;SDS011;11493;43.344;26.226;2023-04-25T11:27:57;1.02;;;0.70;;
22652;SDS011;11493;43.344;26.226;2023-04-25T11:30:25;3.13;;;0.65;;
22652;SDS011;11493;43.344;26.226;2023-04-25T11:32:53;8.70;;;0.50;;
22652;SDS011;11493;43.344;26.226;2023-04-25T11:35:20;11.85;;;0.85;;
22652;SDS011;11493;43.344;26.226;2023-04-25T11:37:49;3.60;;;1.65;;
22652;SDS011;11493;43.344;26.226;2023-04-25T11:40:16;2.22;;;1.20;;
22652;SDS011;11493;43.344;26.226;2023-04-25T11:42:45;2.75;;;1.27;;
22652;SDS011;11493;43.344;26.226;2023-04-25T11:45:13;1.52;;;0.70;;
22652;SDS011;11493;43.344;26.226;2023-04-25T11:47:41;2.38;;;0.80;;
22652;SDS011;11493;43.344;26.226;2023-04-25T11:50:09;2.60;;;1.17;;
22652;SDS011;11493;43.344;26.226;2023-04-25T11:52:41;4.03;;;2.47;;
22652;SDS011;11493;43.344;26.226;2023-04-25T11:55:13;6.03;;;0.88;;
22652;SDS011;11493;43.344;26.226;2023-04-25T11:57:45;2.88;;;1.10;;
22652;SDS011;11493;43.344;26.226;2023-04-25T12:00:19;3.42;;;1.20;;
22652;SDS011;11493;43.344;26.226;2023-04-25T12:02:50;1.65;;;1.00;;
22652;SDS011;11493;43.344;26.226;2023-04-25T12:08:09;10.23;;;2.33;;
22652;SDS011;11493;43.344;26.226;2023-04-25T12:10:37;82.57;;;37.63;;
22652;SDS011;11493;43.344;26.226;2023-04-25T12:13:25;52.25;;;24.00;;
22652;SDS011;11493;43.344;26.226;2023-04-25T12:15:54;1.55;;;1.20;;
22652;SDS011;11493;43.344;26.226;2023-04-25T12:18:23;1.98;;;1.00;;
22652;SDS011;11493;43.344;26.226;2023-04-25T12:20:54;5.60;;;1.15;;
22652;SDS011;11493;43.344;26.226;2023-04-25T12:23:25;4.63;;;2.53;;
22652;SDS011;11493;43.344;26.226;2023-04-25T12:25:53;7.47;;;4.63;;
22652;SDS011;11493;43.344;26.226;2023-04-25T12:28:21;5.68;;;2.45;;
22652;SDS011;11493;43.344;26.226;2023-04-25T12:31:00;10.65;;;7.35;;
22652;SDS011;11493;43.344;26.226;2023-04-25T12:35:59;6.57;;;5.78;;
22652;SDS011;11493;43.344;26.226;2023-04-25T12:38:33;3.45;;;2.03;;
22652;SDS011;11493;43.344;26.226;2023-04-25T12:41:03;2.53;;;1.35;;
22652;SDS011;11493;43.344;26.226;2023-04-25T12:43:30;3.50;;;1.77;;
22652;SDS011;11493;43.344;26.226;2023-04-25T12:45:57;3.35;;;1.40;;
22652;SDS011;11493;43.344;26.226;2023-04-25T12:48:24;2.20;;;1.00;;
22652;SDS011;11493;43.344;26.226;2023-04-25T12:50:51;50.05;;;31.67;;
22652;SDS011;11493;43.344;26.226;2023-04-25T12:53:19;23.13;;;16.20;;
22652;SDS011;11493;43.344;26.226;2023-04-25T12:55:47;5.30;;;2.72;;
22652;SDS011;11493;43.344;26.226;2023-04-25T12:58:15;19.63;;;12.55;;
22652;SDS011;11493;43.344;26.226;2023-04-25T13:00:44;115.70;;;65.90;;
22652;SDS011;11493;43.344;26.226;2023-04-25T13:03:12;13.35;;;12.00;;
22652;SDS011;11493;43.344;26.226;2023-04-25T13:05:39;9.35;;;8.60;;
22652;SDS011;11493;43.344;26.226;2023-04-25T13:08:06;2.60;;;1.60;;
22652;SDS011;11493;43.344;26.226;2023-04-25T13:10:33;63.28;;;55.03;;
22652;SDS011;11493;43.344;26.226;2023-04-25T13:13:05;6.93;;;6.30;;
22652;SDS011;11493;43.344;26.226;2023-04-25T13:15:32;2.50;;;0.98;;
22652;SDS011;11493;43.344;26.226;2023-04-25T13:17:59;0.95;;;0.80;;
22652;SDS011;11493;43.344;26.226;2023-04-25T13:20:27;1.67;;;0.55;;
22652;SDS011;11493;43.344;26.226;2023-04-25T13:22:53;1.38;;;0.70;;
22652;SDS011;11493;43.344;26.226;2023-04-25T13:25:21;1.55;;;0.90;;
22652;SDS011;11493;43.344;26.226;2023-04-25T13:27:48;1.33;;;0.70;;
22652;SDS011;11493;43.344;26.226;2023-04-25T13:30:15;1.98;;;0.90;;
22652;SDS011;11493;43.344;26.226;2023-04-25T13:32:42;5.97;;;1.30;;
22652;SDS011;11493;43.344;26.226;2023-04-25T13:35:11;1.98;;;1.30;;
22652;SDS011;11493;43.344;26.226;2023-04-25T13:37:45;10.00;;;8.82;;
22652;SDS011;11493;43.344;26.226;2023-04-25T13:40:23;15.07;;;13.73;;
22652;SDS011;11493;43.344;26.226;2023-04-25T13:42:51;6.38;;;3.40;;
22652;SDS011;11493;43.344;26.226;2023-04-25T13:45:18;11.63;;;10.63;;
22652;SDS011;11493;43.344;26.226;2023-04-25T13:47:46;80.70;;;72.03;;
22652;SDS011;11493;43.344;26.226;2023-04-25T13:50:22;99.78;;;86.82;;
22652;SDS011;11493;43.344;26.226;2023-04-25T13:52:49;90.40;;;66.50;;
22652;SDS011;11493;43.344;26.226;2023-04-25T13:55:16;39.40;;;30.58;;
22652;SDS011;11493;43.344;26.226;2023-04-25T13:57:43;10.88;;;9.80;;
22652;SDS011;11493;43.344;26.226;2023-04-25T14:00:10;15.40;;;9.05;;
22652;SDS011;11493;43.344;26.226;2023-04-25T14:02:38;6.32;;;4.28;;
22652;SDS011;11493;43.344;26.226;2023-04-25T14:05:05;8.73;;;1.73;;
22652;SDS011;11493;43.344;26.226;2023-04-25T14:07:33;3.20;;;1.17;;
22652;SDS011;11493;43.344;26.226;2023-04-25T14:10:01;5.85;;;2.30;;
22652;SDS011;11493;43.344;26.226;2023-04-25T14:12:29;53.35;;;35.78;;
22652;SDS011;11493;43.344;26.226;2023-04-25T14:14:56;26.17;;;17.00;;
22652;SDS011;11493;43.344;26.226;2023-04-25T14:17:23;1.35;;;1.25;;
22652;SDS011;11493;43.344;26.226;2023-04-25T14:19:50;5.43;;;1.20;;
22652;SDS011;11493;43.344;26.226;2023-04-25T14:22:17;5.72;;;0.70;;
22652;SDS011;11493;43.344;26.226;2023-04-25T14:24:45;2.15;;;0.93;;
22652;SDS011;11493;43.344;26.226;2023-04-25T14:27:12;0.88;;;0.80;;
22652;SDS011;11493;43.344;26.226;2023-04-25T14:29:39;1.35;;;0.80;;
22652;SDS011;11493;43.344;26.226;2023-04-25T14:32:06;3.60;;;0.95;;
22652;SDS011;11493;43.344;26.226;2023-04-25T14:34:33;1.65;;;1.10;;
22652;SDS011;11493;43.344;26.226;2023-04-25T14:37:00;1.42;;;1.15;;
22652;SDS011;11493;43.344;26.226;2023-04-25T14:39:27;5.47;;;1.42;;
22652;SDS011;11493;43.344;26.226;2023-04-25T14:41:54;1.20;;;1.00;;
22652;SDS011;11493;43.344;26.226;2023-04-25T14:44:22;3.63;;;0.77;;
22652;SDS011;11493;43.344;26.226;2023-04-25T14:46:49;1.38;;;1.08;;
22652;SDS011;11493;43.344;26.226;2023-04-25T14:49:18;3.60;;;0.90;;
22652;SDS011;11493;43.344;26.226;2023-04-25T14:51:45;1.45;;;1.10;;
22652;SDS011;11493;43.344;26.226;2023-04-25T14:54:12;6.75;;;1.40;;
22652;SDS011;11493;43.344;26.226;2023-04-25T14:56:39;1.95;;;1.50;;
22652;SDS011;11493;43.344;26.226;2023-04-25T14:59:06;3.17;;;2.92;;
22652;SDS011;11493;43.344;26.226;2023-04-25T15:01:34;19.15;;;11.15;;